Metropolis, IL

8:41 PM CST on March 05, 2015 (GMT -0600)
KILMETRO3 | Change Station
CLOSE
Current Station
Personal Weather Station
Location: Metropolis, IL
Elevation: 0 ft
Nearby Weather Stations

Elev 0 ft 37.16 °N, 88.73 °W | Updated 9 seconds ago

Clear
Clear
11.8 °F
Feels Like 12 °F
N
0.0
Wind Variable Wind from North
Gusts 0.0 mph

Today
High -- | Low -- °F
--% Chance of Precip.
Yesterday
High -- | Low -- °F
Precip. -- in
6:20 AM 5:52 PM
Full, 100% visible
Pressure 30.59 in
Visibility 10.0 miles
Clouds Clear
Windchill 12 °F
Dew Point -4 °F
Humidity 47%
Rainfall in
Snow Depth Not available.
UV 0 out of 12
Pollen .90 out of 12
Air Quality Not available.
Flu Activity Not available.
METAR KM30 060235Z AUTO 00000KT 10SM CLR M09/M14 A3059 RMK AO2 T10911136

More Conditions Fewer Conditions

Pressure 30.59 in
Visibility 10.0 miles
Clouds Clear
Windchill 12 °F
Dew Point -4 °F
Humidity 47%
Rainfall in
Snow Depth Not available.
UV 0 out of 12
Pollen .90 out of 12
Air Quality Not available.
Flu Activity Not available.
METAR KM30 060235Z AUTO 00000KT 10SM CLR M09/M14 A3059 RMK AO2 T10911136

More Conditions Fewer Conditions

10-Day Weather Forecast

Almanac

Astronomy

Mar. 05, 2015 Rise Set
Actual Time
Civil Twilight
Nautical Twilight
Astronomical Twilight
Moon
Length of Visible Light
Length of Day
Tomorrow will be .
, % of the Moon is Illuminated

Today's Extremes

State Highs State Lows

Community

WunderPhotos

Upload Photos

1,803,134 photos uploaded!

WunderBlogs® & News

Nearby

Air Quality

  Air Quality AQ Index Pollutant
Not available.

Snow Depth

Station Depth Elevation

Earthquake Activity

City Distance Mag. Time & Date
Minimum magnitude displayed is 2.5.

Coastal Water Temperatures

Place Temperature

Nearby Weather Stations